createdAt,value
2018-06-25T00:00:41.109Z,59.00
2018-06-25T00:05:35.504Z,59.06
2018-06-25T00:10:30.385Z,60.44
2018-06-25T00:15:25.022Z,57.69
2018-06-25T00:20:19.758Z,60.11
2018-06-25T00:25:14.418Z,58.40
2018-06-25T00:30:09.159Z,58.72
2018-06-25T00:35:03.872Z,60.21
2018-06-25T00:39:58.562Z,59.31
2018-06-25T00:44:53.212Z,59.04
2018-06-25T00:49:47.891Z,58.29
2018-06-25T00:54:42.532Z,58.81
2018-06-25T00:59:49.134Z,58.94
2018-06-25T01:04:43.765Z,58.39
2018-06-25T01:09:38.370Z,54.40
2018-06-25T01:14:33.011Z,53.80
2018-06-25T01:19:27.720Z,56.09
2018-06-25T01:24:22.335Z,61.55
2018-06-25T01:29:17.003Z,62.96
2018-06-25T01:34:12.561Z,63.43
2018-06-25T01:39:09.979Z,64.60
2018-06-25T01:44:05.014Z,66.22
2018-06-25T01:48:59.712Z,64.54
2018-06-25T01:53:54.010Z,66.96
2018-06-25T01:58:48.640Z,67.62
2018-06-25T02:03:43.330Z,66.48
2018-06-25T02:08:37.975Z,66.81
2018-06-25T02:13:32.662Z,66.52
2018-06-25T02:18:27.293Z,67.26
2018-06-25T02:23:21.983Z,67.78
2018-06-25T02:28:17.494Z,67.16
2018-06-25T02:33:12.169Z,67.88
2018-06-25T02:38:07.044Z,67.14
2018-06-25T02:43:01.692Z,67.46
2018-06-25T02:47:56.327Z,66.70
2018-06-25T02:52:50.959Z,65.64
2018-06-25T02:57:45.644Z,62.27
2018-06-25T03:02:40.379Z,59.09
2018-06-25T03:07:34.963Z,61.16
2018-06-25T03:12:29.790Z,59.44
2018-06-25T03:17:24.423Z,58.83
2018-06-25T03:22:19.109Z,59.64
2018-06-25T03:27:13.778Z,59.27
2018-06-25T03:32:08.524Z,57.91
2018-06-25T03:37:03.704Z,58.97
2018-06-25T03:41:58.461Z,58.00
2018-06-25T03:46:53.218Z,58.32
2018-06-25T03:51:49.134Z,60.16
2018-06-25T03:56:43.761Z,60.94
2018-06-25T04:01:38.483Z,61.29
2018-06-25T04:06:34.042Z,63.58
2018-06-25T04:11:28.711Z,64.43
2018-06-25T04:16:23.382Z,63.78
2018-06-25T04:21:18.083Z,62.21
2018-06-25T04:26:12.742Z,60.10
2018-06-25T04:31:07.653Z,61.83
2018-06-25T04:36:02.280Z,61.51
2018-06-25T04:40:57.940Z,61.60
2018-06-25T04:45:52.594Z,61.67
2018-06-25T04:50:47.218Z,63.09
2018-06-25T04:55:41.911Z,63.73
2018-06-25T05:00:36.534Z,64.12
2018-06-25T05:05:31.245Z,64.93
2018-06-25T05:10:25.870Z,65.61
2018-06-25T05:15:20.599Z,62.42
2018-06-25T05:20:15.310Z,64.60
2018-06-25T05:25:09.935Z,62.51
2018-06-25T05:30:04.731Z,62.51
2018-06-25T05:34:59.399Z,60.57
2018-06-25T05:39:54.198Z,60.80
2018-06-25T05:44:49.165Z,61.46
2018-06-25T05:49:43.814Z,60.72
2018-06-25T05:54:38.534Z,61.39
2018-06-25T05:59:33.314Z,65.05
2018-06-25T06:04:28.082Z,63.06
2018-06-25T06:09:22.723Z,64.33
2018-06-25T06:14:17.428Z,64.73
2018-06-25T06:19:12.136Z,65.86
2018-06-25T06:24:06.822Z,62.51
2018-06-25T06:29:01.455Z,63.20
2018-06-25T06:33:56.130Z,62.44
2018-06-25T06:38:50.758Z,62.99
2018-06-25T06:43:45.407Z,65.22
2018-06-25T06:48:40.056Z,63.89
2018-06-25T06:53:34.763Z,65.90
2018-06-25T06:58:29.480Z,65.34
2018-06-25T07:03:24.131Z,62.84
2018-06-25T07:08:18.826Z,60.88
2018-06-25T07:13:13.532Z,59.61
2018-06-25T07:18:08.490Z,56.90
2018-06-25T07:23:03.600Z,58.12
2018-06-25T07:27:58.219Z,56.94
2018-06-25T07:32:53.286Z,58.08
2018-06-25T07:37:48.024Z,53.62
2018-06-25T07:42:42.681Z,55.14
2018-06-25T07:47:37.348Z,52.73
2018-06-25T07:52:31.996Z,53.51
2018-06-25T07:57:26.747Z,52.02
2018-06-25T08:02:21.500Z,50.86
2018-06-25T08:07:16.414Z,46.54
2018-06-25T08:12:11.134Z,45.56
2018-06-25T08:17:05.872Z,46.48
2018-06-25T08:22:00.531Z,43.56
2018-06-25T08:26:55.294Z,44.92
2018-06-25T08:31:49.975Z,50.03
2018-06-25T08:36:44.602Z,52.31
2018-06-25T08:41:39.720Z,47.81
2018-06-25T08:46:34.395Z,50.33
2018-06-25T08:51:29.178Z,55.03
2018-06-25T08:56:23.842Z,53.14
2018-06-25T09:01:19.020Z,56.18
2018-06-25T09:06:13.625Z,52.45
2018-06-25T09:11:08.264Z,51.07
2018-06-25T09:16:03.514Z,51.41
2018-06-25T09:20:58.082Z,50.05
2018-06-25T09:25:52.762Z,51.93
2018-06-25T09:30:47.450Z,49.05
2018-06-25T09:35:42.370Z,51.30
2018-06-25T09:40:36.950Z,48.64
2018-06-25T09:45:31.564Z,48.62
2018-06-25T09:50:26.118Z,48.97
2018-06-25T09:55:20.776Z,46.96
2018-06-25T10:00:19.774Z,47.82
2018-06-25T10:05:14.085Z,49.81
2018-06-25T10:10:08.419Z,46.93
2018-06-25T10:15:03.245Z,47.64
2018-06-25T10:19:57.894Z,46.86
2018-06-25T10:24:52.647Z,43.90
2018-06-25T10:29:47.323Z,44.99
2018-06-25T10:34:42.052Z,40.88
2018-06-25T10:39:36.342Z,41.22
2018-06-25T10:44:30.641Z,41.48
2018-06-25T10:49:25.011Z,43.25
2018-06-25T10:54:19.726Z,44.55
2018-06-25T10:59:14.664Z,43.31
2018-06-25T11:04:09.550Z,41.25
2018-06-25T11:09:05.254Z,38.44
2018-06-25T11:13:59.991Z,37.46
2018-06-25T11:18:54.639Z,41.14
2018-06-25T11:23:49.271Z,42.09
2018-06-25T11:28:44.228Z,42.02
2018-06-25T11:33:39.018Z,41.96
2018-06-25T11:38:33.743Z,41.42
2018-06-25T11:43:28.487Z,41.69
2018-06-25T11:48:23.329Z,43.42
2018-06-25T11:53:18.095Z,44.38
2018-06-25T11:58:12.788Z,41.70
2018-06-25T12:03:07.813Z,40.00
2018-06-25T12:08:02.586Z,39.22
2018-06-25T12:12:57.421Z,41.19
2018-06-25T12:17:52.062Z,38.51
2018-06-25T12:22:46.706Z,37.76
2018-06-25T12:27:41.522Z,36.43
2018-06-25T12:32:36.077Z,41.13
2018-06-25T12:37:30.742Z,41.28
2018-06-25T12:42:25.575Z,40.04
2018-06-25T12:47:20.236Z,42.24
2018-06-25T12:52:14.898Z,41.46
2018-06-25T12:57:09.555Z,41.24
2018-06-25T13:02:04.353Z,40.08
2018-06-25T13:06:59.373Z,41.49
2018-06-25T13:11:54.047Z,40.17
2018-06-25T13:16:48.626Z,40.17
2018-06-25T13:21:43.339Z,41.84
2018-06-25T13:26:37.940Z,40.36
2018-06-25T13:31:32.629Z,42.14
2018-06-25T13:36:27.378Z,42.08
2018-06-25T13:41:22.075Z,40.77
2018-06-25T13:46:17.524Z,40.32
2018-06-25T13:51:12.250Z,41.19
2018-06-25T13:56:07.067Z,41.00
2018-06-25T14:01:01.764Z,41.16
2018-06-25T14:05:56.636Z,41.85
2018-06-25T14:10:52.110Z,43.97
2018-06-25T14:15:46.750Z,43.75
2018-06-25T14:20:41.466Z,41.21
2018-06-25T14:25:41.274Z,39.35
2018-06-25T14:30:40.694Z,39.19
2018-06-25T14:35:35.262Z,40.78
2018-06-25T14:40:29.913Z,42.80
2018-06-25T14:45:24.529Z,40.47
2018-06-25T14:50:19.190Z,41.75
2018-06-25T14:55:13.767Z,41.50
2018-06-25T15:00:08.456Z,41.42
2018-06-25T15:05:03.102Z,41.33
2018-06-25T15:09:57.766Z,42.46
2018-06-25T15:14:52.410Z,42.54
2018-06-25T15:19:47.015Z,42.83
2018-06-25T15:24:41.647Z,43.32
2018-06-25T15:29:36.227Z,43.13
2018-06-25T15:34:30.835Z,43.79
2018-06-25T15:39:25.503Z,41.11
2018-06-25T15:44:20.378Z,42.79
2018-06-25T15:49:15.014Z,43.53
2018-06-25T15:54:09.624Z,43.21
2018-06-25T15:59:04.326Z,43.17
2018-06-25T16:03:58.978Z,43.73
2018-06-25T16:08:53.621Z,41.23
2018-06-25T16:13:48.201Z,39.71
2018-06-25T16:18:42.805Z,42.15
2018-06-25T16:23:37.420Z,41.17
2018-06-25T16:28:32.180Z,43.20
2018-06-25T16:33:26.847Z,43.41
2018-06-25T16:38:21.669Z,41.55
2018-06-25T16:43:16.311Z,41.15
2018-06-25T16:48:10.915Z,41.82
2018-06-25T16:53:05.701Z,43.05
2018-06-25T16:58:00.283Z,43.23
2018-06-25T17:02:54.873Z,42.37
2018-06-25T17:07:49.534Z,43.80
2018-06-25T17:12:44.184Z,42.64
2018-06-25T17:17:38.783Z,42.95
2018-06-25T17:22:33.388Z,42.32
2018-06-25T17:27:28.018Z,42.11
2018-06-25T17:32:22.649Z,42.87
2018-06-25T17:37:17.777Z,43.05
2018-06-25T17:42:12.407Z,43.04
2018-06-25T17:47:07.161Z,44.18
2018-06-25T17:52:01.765Z,43.88
2018-06-25T17:56:56.382Z,42.47
2018-06-25T18:01:52.790Z,42.90
2018-06-25T18:06:47.431Z,43.60
2018-06-25T18:11:42.077Z,43.85
2018-06-25T18:16:36.634Z,45.10
2018-06-25T18:21:31.374Z,44.85
2018-06-25T18:26:26.070Z,41.88
2018-06-25T18:31:20.803Z,43.65
2018-06-25T18:36:15.438Z,43.72
2018-06-25T18:41:10.112Z,44.07
2018-06-25T18:46:04.847Z,46.59
2018-06-25T18:50:59.479Z,45.01
2018-06-25T18:55:54.097Z,46.04
2018-06-25T19:00:48.833Z,47.92
2018-06-25T19:05:43.467Z,49.48
2018-06-25T19:10:38.237Z,48.13
2018-06-25T19:15:34.774Z,48.10
2018-06-25T19:20:30.311Z,48.99
2018-06-25T19:25:24.977Z,51.10
2018-06-25T19:30:19.704Z,49.18
2018-06-25T19:35:14.503Z,48.81
2018-06-25T19:40:09.207Z,49.08
2018-06-25T19:45:03.899Z,49.92
2018-06-25T19:49:58.655Z,49.81
2018-06-25T19:54:53.298Z,48.72
2018-06-25T19:59:47.980Z,50.12
2018-06-25T20:04:42.714Z,53.22
2018-06-25T20:09:37.390Z,54.10
2018-06-25T20:14:32.073Z,53.84
2018-06-25T20:19:26.720Z,54.19
2018-06-25T20:24:21.329Z,54.85
2018-06-25T20:29:16.139Z,55.53
2018-06-25T20:34:10.763Z,56.67
2018-06-25T20:39:08.655Z,56.59
2018-06-25T20:44:03.570Z,57.85
2018-06-25T20:48:58.234Z,57.75
2018-06-25T20:53:52.934Z,58.24
2018-06-25T20:58:47.598Z,58.71
2018-06-25T21:03:42.490Z,57.50
2018-06-25T21:08:37.243Z,58.45
2018-06-25T21:13:31.904Z,59.46
2018-06-25T21:18:26.667Z,59.23
2018-06-25T21:23:21.322Z,59.63
2018-06-25T21:28:16.005Z,60.13
2018-06-25T21:33:10.764Z,59.96
2018-06-25T21:38:05.451Z,58.90
2018-06-25T21:43:00.175Z,59.85
2018-06-25T21:47:54.889Z,60.39
2018-06-25T21:52:49.561Z,59.97
2018-06-25T21:57:44.267Z,59.32
2018-06-25T22:02:39.054Z,58.62
2018-06-25T22:07:33.716Z,58.69
2018-06-25T22:12:28.403Z,60.38
2018-06-25T22:17:23.108Z,61.33
2018-06-25T22:22:17.821Z,61.90
2018-06-25T22:27:12.447Z,61.00
2018-06-25T22:32:07.974Z,60.59
2018-06-25T22:37:02.558Z,60.40
2018-06-25T22:41:57.154Z,60.83
2018-06-25T22:46:51.815Z,60.44
2018-06-25T22:51:46.864Z,61.79
2018-06-25T22:56:41.535Z,62.09
2018-06-25T23:01:36.205Z,62.35
2018-06-25T23:06:30.906Z,62.04
2018-06-25T23:11:25.591Z,61.43
2018-06-25T23:16:20.211Z,62.71
2018-06-25T23:21:15.094Z,62.88
2018-06-25T23:26:09.674Z,63.09
2018-06-25T23:31:04.614Z,62.10
2018-06-25T23:35:59.238Z,63.23
2018-06-25T23:40:54.010Z,63.42
2018-06-25T23:45:48.695Z,63.00
2018-06-25T23:50:43.354Z,64.35
2018-06-25T23:55:38.027Z,63.02
